Time;durP1;ratioP1;P1;durP2;ratioP2;P2;SDS_P1;SDS_P2;PMS_P1;PMS_P2;Temp;Humidity;BMP_temperature;BMP_pressure;BME280_temperature;BME280_humidity;BME280_pressure;Samples;Min_cycle;Max_cycle;Signal;HPM_P1;HPM_P2
2022/06/28 00:02:25;;;;;;;1.95;1.48;;;17.80;99.90;;;;;;5032145;28;20185;-66
2022/06/28 00:04:50;;;;;;;2.45;1.42;;;17.80;99.90;;;;;;5032283;28;20178;-66
2022/06/28 00:07:16;;;;;;;3.58;1.50;;;17.70;99.90;;;;;;5032086;28;20285;-66
2022/06/28 00:09:41;;;;;;;2.03;1.55;;;17.70;99.90;;;;;;5024895;28;20174;-66
2022/06/28 00:12:07;;;;;;;3.05;1.60;;;17.60;99.90;;;;;;4994801;28;20270;-66
2022/06/28 00:17:17;;;;;;;1.58;1.48;;;17.60;99.90;;;;;;5012006;28;20250;-66
2022/06/28 00:19:43;;;;;;;3.53;1.70;;;17.60;99.90;;;;;;5028423;28;20269;-66
2022/06/28 00:22:08;;;;;;;5.60;1.58;;;17.60;99.90;;;;;;5019136;28;20252;-66
2022/06/28 00:24:34;;;;;;;2.92;1.65;;;17.60;99.90;;;;;;5024625;28;20285;-66
2022/06/28 00:26:59;;;;;;;2.83;1.70;;;17.50;99.90;;;;;;5012201;28;20585;-66
2022/06/28 00:29:25;;;;;;;2.25;1.90;;;17.30;99.90;;;;;;5012219;28;20182;-66
2022/06/28 00:31:51;;;;;;;3.35;1.77;;;17.30;99.90;;;;;;5012145;28;20182;-67
2022/06/28 00:34:16;;;;;;;2.60;1.83;;;17.20;99.90;;;;;;5015626;28;20583;-66
2022/06/28 00:36:42;;;;;;;3.03;1.80;;;17.10;99.90;;;;;;5020537;28;20182;-66
2022/06/28 00:39:08;;;;;;;1.80;1.70;;;17.10;99.90;;;;;;5026232;28;20226;-66
2022/06/28 00:41:34;;;;;;;6.13;1.80;;;17.10;99.90;;;;;;5013334;28;20704;-66
2022/06/28 00:44:00;;;;;;;3.30;1.90;;;17.10;99.90;;;;;;5031596;28;20179;-67
2022/06/28 00:46:26;;;;;;;5.95;1.60;;;17.10;99.90;;;;;;5031029;28;20688;-67
2022/06/28 00:48:52;;;;;;;2.03;1.63;;;17.20;99.90;;;;;;5031495;28;20190;-66
2022/06/28 00:51:17;;;;;;;3.03;1.70;;;17.20;99.90;;;;;;5031303;28;20195;-67
2022/06/28 00:53:43;;;;;;;3.67;1.70;;;17.20;99.90;;;;;;5031410;28;20182;-67
2022/06/28 00:56:09;;;;;;;4.63;1.80;;;17.20;99.90;;;;;;5031156;28;20182;-67
2022/06/28 00:58:34;;;;;;;2.80;1.67;;;17.20;99.90;;;;;;5031234;28;20672;-67
2022/06/28 01:01:00;;;;;;;1.60;1.50;;;17.20;99.90;;;;;;5034263;28;20714;-67
2022/06/28 01:03:27;;;;;;;2.47;1.90;;;17.20;99.90;;;;;;5034871;28;20649;-66
2022/06/28 01:05:54;;;;;;;4.03;1.58;;;17.30;99.90;;;;;;5030495;28;20186;-67
2022/06/28 01:08:19;;;;;;;3.35;1.73;;;17.30;99.90;;;;;;5015717;28;20197;-66
2022/06/28 01:10:45;;;;;;;3.10;1.80;;;17.30;99.90;;;;;;5026981;28;20712;-67
2022/06/28 01:13:12;;;;;;;1.92;1.58;;;17.30;99.90;;;;;;5035438;28;20255;-66
2022/06/28 01:15:40;;;;;;;2.45;1.50;;;17.20;99.90;;;;;;5035108;28;20594;-67
2022/06/28 01:18:07;;;;;;;3.15;1.70;;;17.20;99.90;;;;;;5035218;28;20663;-67
2022/06/28 01:20:33;;;;;;;4.15;2.10;;;17.20;99.90;;;;;;5035100;28;20213;-67
2022/06/28 01:23:00;;;;;;;1.73;1.60;;;17.10;99.90;;;;;;5034885;28;20186;-67
2022/06/28 01:25:25;;;;;;;4.03;1.73;;;17.10;99.90;;;;;;5016955;28;20752;-67
2022/06/28 01:27:52;;;;;;;5.75;1.98;;;17.10;99.90;;;;;;5034809;28;20186;-67
2022/06/28 01:30:18;;;;;;;5.05;2.00;;;17.10;99.90;;;;;;5034805;28;20185;-67
2022/06/28 01:32:44;;;;;;;3.53;1.70;;;17.00;99.90;;;;;;5034672;28;20190;-67
2022/06/28 01:35:10;;;;;;;2.10;1.90;;;17.10;99.90;;;;;;5034440;28;20664;-67
2022/06/28 01:37:36;;;;;;;2.20;2.03;;;17.00;99.90;;;;;;5034558;28;20590;-66
2022/06/28 01:40:03;;;;;;;3.88;2.08;;;16.90;99.90;;;;;;5034588;28;20280;-66
2022/06/28 01:42:30;;;;;;;2.45;1.80;;;16.90;99.90;;;;;;5016480;28;20637;-67
2022/06/28 01:44:56;;;;;;;2.20;1.60;;;16.90;99.90;;;;;;5034479;28;20325;-67
2022/06/28 01:47:27;;;;;;;4.72;1.98;;;16.80;99.90;;;;;;5034316;28;20185;-67
2022/06/28 01:49:54;;;;;;;4.65;1.90;;;16.80;99.90;;;;;;5034283;28;20171;-66
2022/06/28 01:52:20;;;;;;;4.60;2.00;;;16.80;99.90;;;;;;5034259;28;20213;-67
2022/06/28 01:54:46;;;;;;;5.65;1.92;;;16.70;99.90;;;;;;5034013;28;20240;-67
2022/06/28 01:57:13;;;;;;;5.10;1.70;;;16.70;99.90;;;;;;5016328;28;20175;-67
2022/06/28 01:59:39;;;;;;;1.90;1.70;;;16.60;99.90;;;;;;5034345;28;20211;-66
2022/06/28 02:02:05;;;;;;;2.03;1.63;;;16.60;99.90;;;;;;5033947;28;20256;-67
2022/06/28 02:04:31;;;;;;;3.22;1.70;;;16.60;99.90;;;;;;5034138;28;20202;-67
2022/06/28 02:06:57;;;;;;;4.15;1.90;;;16.60;99.90;;;;;;5034193;28;20183;-67
2022/06/28 02:09:24;;;;;;;3.20;1.63;;;16.50;99.90;;;;;;5033849;28;20269;-66
2022/06/28 02:11:50;;;;;;;3.00;1.70;;;16.50;99.90;;;;;;5033526;28;20189;-67
2022/06/28 02:14:16;;;;;;;3.88;1.95;;;16.50;99.90;;;;;;5033806;28;20232;-67
2022/06/28 02:16:42;;;;;;;2.00;1.73;;;16.50;99.90;;;;;;5034001;28;20179;-66
2022/06/28 02:19:07;;;;;;;3.42;1.70;;;16.50;99.90;;;;;;5033495;28;20713;-66
2022/06/28 02:21:42;;;;;;;2.42;1.75;;;16.50;99.90;;;;;;5033642;28;20304;-66
2022/06/28 02:24:08;;;;;;;6.57;1.92;;;16.40;99.90;;;;;;5031747;28;20196;-67
2022/06/28 02:26:34;;;;;;;4.25;1.77;;;16.40;99.90;;;;;;5033460;28;20324;-67
2022/06/28 02:29:00;;;;;;;2.75;1.60;;;16.30;99.90;;;;;;5033291;28;20258;-67
2022/06/28 02:31:27;;;;;;;3.88;1.77;;;16.30;99.90;;;;;;5033335;28;20181;-67
2022/06/28 02:33:52;;;;;;;4.07;1.75;;;16.30;99.90;;;;;;5033382;28;20328;-67
2022/06/28 02:41:47;;;;;;;4.07;1.50;;;16.20;99.90;;;;;;5032951;28;20291;-66
2022/06/28 02:44:15;;;;;;;3.42;1.60;;;16.00;99.90;;;;;;5015512;28;20175;-66
2022/06/28 02:46:41;;;;;;;1.73;1.63;;;16.00;99.90;;;;;;5032949;28;20190;-67
2022/06/28 02:49:07;;;;;;;4.75;1.67;;;16.00;99.90;;;;;;5032656;28;20316;-67
2022/06/28 02:51:32;;;;;;;3.40;1.90;;;15.90;99.90;;;;;;5033101;28;20265;-67
2022/06/28 02:53:58;;;;;;;2.15;1.70;;;15.90;99.90;;;;;;5032831;28;20178;-67
2022/06/28 02:56:24;;;;;;;1.83;1.55;;;15.90;99.90;;;;;;5032680;28;20189;-66
2022/06/28 02:58:49;;;;;;;1.65;1.55;;;15.90;99.90;;;;;;5032942;28;20661;-67
2022/06/28 03:01:15;;;;;;;1.77;1.60;;;15.90;99.90;;;;;;5032613;28;20577;-67
2022/06/28 03:03:41;;;;;;;1.98;1.60;;;15.80;99.90;;;;;;5032836;28;20264;-67
2022/06/28 03:06:06;;;;;;;3.05;1.80;;;15.80;99.90;;;;;;5032678;28;20201;-67
2022/06/28 03:08:32;;;;;;;2.88;1.80;;;15.80;99.90;;;;;;5032607;28;20185;-66
2022/06/28 03:10:58;;;;;;;2.75;1.60;;;15.80;99.90;;;;;;5032647;28;20205;-66
2022/06/28 03:13:24;;;;;;;1.90;1.70;;;15.80;99.90;;;;;;5032240;28;20603;-66
2022/06/28 03:15:50;;;;;;;1.83;1.63;;;15.80;99.90;;;;;;5032403;28;20182;-66
2022/06/28 03:18:15;;;;;;;3.17;1.63;;;15.80;99.90;;;;;;5032511;28;20229;-66
2022/06/28 03:20:41;;;;;;;5.65;1.63;;;15.80;99.90;;;;;;5032584;28;20214;-67
2022/06/28 03:23:07;;;;;;;3.33;1.65;;;15.80;99.90;;;;;;5031000;28;20178;-66
2022/06/28 03:25:32;;;;;;;1.40;1.30;;;15.80;99.90;;;;;;5032090;28;20273;-67
2022/06/28 03:27:58;;;;;;;4.07;1.95;;;15.70;99.90;;;;;;5014609;28;20641;-67
2022/06/28 03:30:24;;;;;;;4.68;1.60;;;15.70;99.90;;;;;;5030491;28;20221;-67
2022/06/28 03:32:49;;;;;;;2.85;1.35;;;15.70;99.90;;;;;;5031694;28;20182;-67
2022/06/28 03:35:15;;;;;;;2.83;1.65;;;15.60;99.90;;;;;;5032304;28;20204;-67
2022/06/28 03:37:41;;;;;;;1.80;1.70;;;15.50;99.90;;;;;;5031961;28;20178;-66
2022/06/28 03:40:07;;;;;;;2.78;1.75;;;15.50;99.90;;;;;;5032075;28;20182;-67
2022/06/28 03:42:33;;;;;;;1.85;1.35;;;15.40;99.90;;;;;;5032178;28;20186;-66
2022/06/28 03:44:58;;;;;;;2.97;1.98;;;15.50;99.90;;;;;;5032300;28;20182;-66
2022/06/28 03:47:24;;;;;;;3.08;1.50;;;15.50;99.90;;;;;;5031966;28;20280;-67
2022/06/28 03:49:49;;;;;;;2.70;1.50;;;15.50;99.90;;;;;;5031787;28;20181;-67
2022/06/28 03:52:16;;;;;;;3.47;1.50;;;15.50;99.90;;;;;;5032205;28;20182;-66
2022/06/28 03:54:42;;;;;;;2.88;1.80;;;15.50;99.90;;;;;;5031925;28;20213;-67
2022/06/28 03:57:07;;;;;;;3.65;1.92;;;15.60;99.90;;;;;;5031651;28;20703;-66
2022/06/28 03:59:33;;;;;;;1.70;1.60;;;15.60;99.90;;;;;;5032100;28;20189;-66
2022/06/28 04:01:59;;;;;;;4.45;1.58;;;15.60;99.90;;;;;;5031328;28;20250;-66
2022/06/28 04:04:24;;;;;;;2.08;1.70;;;15.60;99.90;;;;;;5030578;28;20193;-66
2022/06/28 04:06:50;;;;;;;7.15;2.40;;;15.50;99.90;;;;;;5032153;28;20178;-66
2022/06/28 04:09:17;;;;;;;4.45;1.70;;;15.50;99.90;;;;;;5030846;28;20178;-66
2022/06/28 04:11:43;;;;;;;2.55;1.75;;;15.50;99.90;;;;;;5022377;28;20209;-67
2022/06/28 04:14:13;;;;;;;5.00;1.48;;;15.50;99.90;;;;;;5018446;28;20206;-66
2022/06/28 04:16:42;;;;;;;3.50;1.55;;;15.60;99.90;;;;;;5031706;28;20220;-67
2022/06/28 04:19:08;;;;;;;1.92;1.73;;;15.60;99.90;;;;;;5030710;28;20206;-66
2022/06/28 04:21:34;;;;;;;2.58;1.45;;;15.80;99.90;;;;;;5031508;28;20214;-68
2022/06/28 04:24:00;;;;;;;7.65;1.40;;;16.00;99.90;;;;;;5031961;28;20181;-70
2022/06/28 04:26:25;;;;;;;2.13;1.40;;;16.30;99.90;;;;;;5026461;28;20189;-69
2022/06/28 04:28:51;;;;;;;1.73;1.35;;;16.70;99.90;;;;;;5025124;28;20539;-71
2022/06/28 04:31:17;;;;;;;5.07;1.55;;;17.10;99.90;;;;;;5031694;28;20174;-70
2022/06/28 04:33:43;;;;;;;2.00;1.30;;;17.50;99.90;;;;;;5024703;28;20178;-70
2022/06/28 04:36:08;;;;;;;1.50;1.40;;;17.90;99.90;;;;;;5037623;28;20195;-69
2022/06/28 04:38:34;;;;;;;1.50;1.40;;;18.30;99.90;;;;;;5037631;28;20549;-68
2022/06/28 04:41:00;;;;;;;1.88;1.60;;;18.80;99.90;;;;;;5033448;28;20225;-67
2022/06/28 04:43:25;;;;;;;2.55;1.77;;;19.20;99.90;;;;;;5006020;28;20174;-68
2022/06/28 04:45:51;;;;;;;4.30;1.45;;;19.70;99.90;;;;;;5000903;28;20190;-67
2022/06/28 04:48:17;;;;;;;4.40;1.80;;;20.30;99.90;;;;;;5000863;28;20178;-68
2022/06/28 04:50:42;;;;;;;2.00;1.52;;;20.70;99.90;;;;;;5036902;28;20178;-68
2022/06/28 04:53:08;;;;;;;3.38;1.85;;;21.20;99.90;;;;;;5037995;28;20257;-68
2022/06/28 04:55:33;;;;;;;7.03;1.90;;;21.70;99.90;;;;;;5038189;28;20192;-68
2022/06/28 04:57:59;;;;;;;6.18;1.63;;;22.20;99.90;;;;;;5036707;28;20189;-68
2022/06/28 05:00:24;;;;;;;3.90;1.80;;;22.60;99.90;;;;;;5020686;28;20206;-68
2022/06/28 05:02:50;;;;;;;2.40;1.55;;;22.90;99.90;;;;;;5022231;28;20181;-68
2022/06/28 05:05:15;;;;;;;3.60;1.48;;;23.20;99.90;;;;;;5037981;28;20180;-69
2022/06/28 05:07:41;;;;;;;5.75;1.80;;;23.50;99.90;;;;;;5038133;28;20617;-69
2022/06/28 05:10:07;;;;;;;9.48;1.70;;;23.80;99.90;;;;;;5038085;28;20228;-68
2022/06/28 05:12:33;;;;;;;4.55;1.80;;;24.00;99.90;;;;;;5037851;28;20273;-68
2022/06/28 05:14:58;;;;;;;5.40;1.70;;;24.40;99.90;;;;;;5034341;28;20250;-69
2022/06/28 05:17:24;;;;;;;2.35;1.63;;;24.60;99.90;;;;;;5018292;28;20177;-68
2022/06/28 05:19:51;;;;;;;11.15;2.40;;;24.70;99.90;;;;;;5018386;28;20240;-68
2022/06/28 05:22:16;;;;;;;2.72;1.50;;;24.90;99.90;;;;;;5018041;28;20218;-67
2022/06/28 05:24:42;;;;;;;3.85;2.28;;;25.30;99.50;;;;;;5019857;28;20189;-69
2022/06/28 05:27:07;;;;;;;3.00;1.67;;;25.70;98.90;;;;;;5037770;28;20190;-69
2022/06/28 05:29:33;;;;;;;2.17;1.50;;;26.10;98.20;;;;;;5037908;28;20181;-69
2022/06/28 05:31:59;;;;;;;3.65;1.88;;;26.40;97.10;;;;;;5037668;28;20206;-69
2022/06/28 05:34:25;;;;;;;2.90;1.45;;;26.60;96.10;;;;;;5037978;28;20189;-70
2022/06/28 05:36:50;;;;;;;2.88;1.50;;;26.80;95.40;;;;;;5037662;28;20590;-69
2022/06/28 05:39:16;;;;;;;2.13;1.60;;;27.20;94.60;;;;;;5037681;28;20321;-69
2022/06/28 05:41:42;;;;;;;3.70;1.65;;;27.50;93.30;;;;;;5037497;28;20214;-69
2022/06/28 05:44:10;;;;;;;4.78;1.63;;;27.70;93.40;;;;;;5037979;28;20227;-68
2022/06/28 05:46:36;;;;;;;1.58;1.42;;;27.90;92.60;;;;;;5035031;28;20186;-68
2022/06/28 05:49:02;;;;;;;4.13;1.55;;;28.20;91.10;;;;;;5034818;28;20170;-68
2022/06/28 05:51:29;;;;;;;4.03;1.60;;;28.40;90.60;;;;;;5033073;28;20701;-69
2022/06/28 05:53:55;;;;;;;4.60;1.92;;;28.70;90.20;;;;;;5030343;28;20657;-68
2022/06/28 05:56:21;;;;;;;5.18;1.48;;;28.90;89.20;;;;;;5026538;28;20205;-69
2022/06/28 05:58:46;;;;;;;2.05;1.58;;;29.30;87.10;;;;;;5014694;28;20683;-70
2022/06/28 06:01:12;;;;;;;7.72;2.08;;;29.60;83.90;;;;;;5028352;28;20287;-70
2022/06/28 06:03:38;;;;;;;3.88;1.50;;;29.90;83.10;;;;;;5034217;28;20182;-70
2022/06/28 06:06:03;;;;;;;5.20;1.50;;;30.20;80.80;;;;;;5034085;28;20182;-69
2022/06/28 06:08:29;;;;;;;2.92;1.40;;;30.60;77.70;;;;;;5033490;28;20186;-69
2022/06/28 06:10:54;;;;;;;7.28;1.58;;;30.80;75.90;;;;;;5034258;28;20225;-69
2022/06/28 06:13:20;;;;;;;5.40;1.50;;;31.00;73.30;;;;;;5034289;28;20189;-70
2022/06/28 06:15:45;;;;;;;4.00;1.70;;;31.10;71.40;;;;;;5034294;28;20174;-70
2022/06/28 06:18:11;;;;;;;5.10;1.80;;;31.00;73.00;;;;;;5028328;28;20179;-70
2022/06/28 06:20:37;;;;;;;3.70;1.60;;;31.00;71.40;;;;;;5014454;28;20205;-69
2022/06/28 06:23:02;;;;;;;4.50;1.70;;;31.30;70.80;;;;;;5027281;28;20296;-69
2022/06/28 06:25:28;;;;;;;2.95;1.40;;;31.70;69.30;;;;;;5034068;28;20182;-70
2022/06/28 06:27:53;;;;;;;2.30;1.40;;;32.00;67.70;;;;;;5029270;28;20186;-70
2022/06/28 06:30:19;;;;;;;1.73;1.05;;;32.60;66.60;;;;;;5030249;28;20742;-70
2022/06/28 06:32:44;;;;;;;2.28;0.90;;;32.70;61.20;;;;;;5033904;28;20183;-70
2022/06/28 06:35:10;;;;;;;0.85;0.85;;;32.60;59.90;;;;;;5034010;28;20173;-71
2022/06/28 06:37:36;;;;;;;2.22;0.95;;;32.60;58.50;;;;;;5033705;28;20181;-70
2022/06/28 06:40:02;;;;;;;1.15;0.90;;;32.90;57.60;;;;;;5033880;28;20206;-70
2022/06/28 06:42:28;;;;;;;2.95;0.85;;;32.90;56.30;;;;;;5033939;28;20213;-71
2022/06/28 06:44:54;;;;;;;1.73;0.90;;;32.70;55.10;;;;;;5034094;28;20251;-70
2022/06/28 06:47:20;;;;;;;1.05;0.80;;;32.70;54.10;;;;;;5033806;28;20663;-70
2022/06/28 06:49:45;;;;;;;6.20;0.82;;;32.80;53.40;;;;;;5015868;28;20178;-70
2022/06/28 06:52:11;;;;;;;2.22;0.90;;;32.80;53.20;;;;;;5033779;28;20180;-70
2022/06/28 06:54:37;;;;;;;1.20;1.10;;;32.40;52.90;;;;;;5033578;28;20216;-71
2022/06/28 06:57:02;;;;;;;2.05;1.15;;;31.80;54.00;;;;;;5033588;28;20194;-70
2022/06/28 06:59:28;;;;;;;1.65;1.20;;;31.70;55.20;;;;;;5033399;28;20799;-70
2022/06/28 07:01:53;;;;;;;2.15;0.90;;;31.60;55.80;;;;;;5033544;28;20217;-70
2022/06/28 07:04:19;;;;;;;1.00;0.90;;;31.60;55.20;;;;;;5033424;28;20683;-70
2022/06/28 07:06:45;;;;;;;1.95;1.00;;;31.70;54.20;;;;;;5033386;28;20673;-70
2022/06/28 07:09:10;;;;;;;2.55;1.00;;;31.70;54.80;;;;;;5033376;28;20178;-70
2022/06/28 07:11:36;;;;;;;4.38;0.88;;;31.30;55.10;;;;;;5033334;28;20506;-70
2022/06/28 07:14:02;;;;;;;2.05;0.80;;;31.10;55.80;;;;;;5033268;28;20260;-70
2022/06/28 07:16:28;;;;;;;2.45;1.00;;;30.90;54.80;;;;;;5033215;28;20174;-70
2022/06/28 07:18:53;;;;;;;1.10;0.75;;;30.60;55.50;;;;;;5033304;28;20174;-70
2022/06/28 07:21:19;;;;;;;1.33;1.23;;;30.60;55.50;;;;;;5032929;28;20240;-70
2022/06/28 07:23:44;;;;;;;1.83;0.80;;;30.80;56.30;;;;;;5033189;28;20257;-71
2022/06/28 07:26:11;;;;;;;2.05;0.90;;;31.10;53.60;;;;;;5033018;28;20178;-70
2022/06/28 07:28:36;;;;;;;1.73;0.77;;;30.50;52.20;;;;;;5033005;28;20182;-70
2022/06/28 07:31:02;;;;;;;0.75;0.75;;;29.80;52.40;;;;;;5015419;28;20170;-70
2022/06/28 07:33:28;;;;;;;0.65;0.65;;;29.00;52.60;;;;;;5032992;28;20653;-70
2022/06/28 07:35:53;;;;;;;1.63;0.90;;;28.70;54.90;;;;;;5033084;28;20192;-70
2022/06/28 07:38:19;;;;;;;1.75;1.20;;;29.00;54.50;;;;;;5032670;28;20715;-70
2022/06/28 07:40:44;;;;;;;0.77;0.77;;;29.20;55.90;;;;;;5032832;28;20305;-70
2022/06/28 07:43:10;;;;;;;2.63;1.10;;;29.60;54.90;;;;;;5032819;28;20170;-70
2022/06/28 07:45:36;;;;;;;1.15;0.80;;;30.10;55.20;;;;;;5032571;28;20182;-70
2022/06/28 07:48:03;;;;;;;1.63;0.90;;;30.50;53.20;;;;;;5032585;28;20232;-70
2022/06/28 07:53:13;;;;;;;1.52;1.00;;;30.70;52.80;;;;;;5032941;28;20622;-70
2022/06/28 07:55:38;;;;;;;0.82;0.82;;;30.70;53.20;;;;;;5032349;28;20205;-70
2022/06/28 07:58:04;;;;;;;1.25;0.77;;;30.90;53.80;;;;;;5032547;28;20268;-70
2022/06/28 08:00:30;;;;;;;1.27;0.82;;;31.40;52.70;;;;;;5032286;28;20181;-71
2022/06/28 08:02:56;;;;;;;1.58;1.10;;;31.80;51.90;;;;;;5032469;28;20261;-70
2022/06/28 08:05:22;;;;;;;2.22;0.98;;;32.10;52.40;;;;;;5032267;28;20224;-70
2022/06/28 08:07:48;;;;;;;2.15;0.90;;;32.30;51.20;;;;;;5032487;28;20182;-71
2022/06/28 08:10:14;;;;;;;2.28;0.80;;;32.30;50.80;;;;;;5031927;28;20170;-71
2022/06/28 08:12:40;;;;;;;1.67;0.93;;;32.40;50.50;;;;;;5032059;28;20575;-71
2022/06/28 08:15:06;;;;;;;2.03;1.20;;;32.40;49.60;;;;;;5032379;28;20228;-71
2022/06/28 08:17:31;;;;;;;2.25;0.82;;;32.40;49.60;;;;;;5032146;28;20612;-70
2022/06/28 08:19:57;;;;;;;3.03;0.80;;;32.30;48.30;;;;;;5032207;28;20656;-70
2022/06/28 08:22:23;;;;;;;2.28;0.90;;;32.00;48.00;;;;;;5032053;28;20256;-71
2022/06/28 08:24:48;;;;;;;2.17;0.82;;;31.70;49.50;;;;;;5032033;28;20265;-70
2022/06/28 08:27:14;;;;;;;1.35;0.60;;;31.80;50.50;;;;;;5032243;28;20189;-70
2022/06/28 08:29:42;;;;;;;1.80;0.65;;;31.90;49.30;;;;;;5032117;28;20169;-71
2022/06/28 08:32:09;;;;;;;1.25;0.60;;;31.90;49.50;;;;;;5032049;28;20189;-71
2022/06/28 08:34:35;;;;;;;3.72;0.75;;;32.10;49.20;;;;;;5032064;28;20186;-70
2022/06/28 08:37:00;;;;;;;4.85;0.93;;;32.00;48.50;;;;;;5031992;28;20178;-71
2022/06/28 08:39:26;;;;;;;3.72;0.85;;;31.90;48.50;;;;;;5031814;28;20329;-70
2022/06/28 08:41:53;;;;;;;2.55;0.90;;;31.70;49.70;;;;;;5032024;28;20245;-70
2022/06/28 08:44:19;;;;;;;5.20;1.17;;;32.00;50.40;;;;;;5032155;28;20228;-70
2022/06/28 08:46:52;;;;;;;4.32;0.90;;;32.00;48.20;;;;;;5031800;28;20182;-70
2022/06/28 08:49:48;;;;;;;1.20;0.85;;;31.90;47.50;;;;;;5031822;28;20174;-70
2022/06/28 08:52:14;;;;;;;1.95;0.80;;;32.00;49.60;;;;;;5031847;28;20595;-70
2022/06/28 08:54:41;;;;;;;2.13;0.80;;;31.80;47.90;;;;;;5031858;28;20182;-70
2022/06/28 08:57:07;;;;;;;1.17;0.80;;;31.70;48.90;;;;;;5031949;28;20174;-70
2022/06/28 08:59:34;;;;;;;2.13;0.77;;;31.60;46.30;;;;;;5031623;28;20320;-69
2022/06/28 09:02:00;;;;;;;1.25;1.00;;;31.30;46.30;;;;;;5031671;28;20221;-70
2022/06/28 09:04:30;;;;;;;1.23;0.70;;;31.30;47.70;;;;;;5031738;28;20578;-69
2022/06/28 09:06:55;;;;;;;1.65;0.75;;;31.30;46.90;;;;;;5031855;28;20193;-69
2022/06/28 09:09:21;;;;;;;0.70;0.70;;;31.10;46.20;;;;;;5031659;28;20171;-69
2022/06/28 09:11:46;;;;;;;1.05;0.55;;;30.90;46.30;;;;;;5031659;28;20244;-69
2022/06/28 09:14:35;;;;;;;1.20;0.80;;;30.70;45.80;;;;;;5031626;28;20170;-69
2022/06/28 09:17:22;;;;;;;1.60;0.90;;;30.30;47.40;;;;;;5031607;28;20174;-70
2022/06/28 09:19:53;;;;;;;0.80;0.77;;;30.30;47.10;;;;;;5031726;28;20170;-69
2022/06/28 09:22:27;;;;;;;3.15;0.77;;;30.20;46.90;;;;;;5033141;28;20212;-69
2022/06/28 09:24:52;;;;;;;3.88;0.95;;;30.10;48.10;;;;;;5035377;28;20174;-70
2022/06/28 09:27:31;;;;;;;0.80;0.73;;;30.10;47.70;;;;;;5035291;28;20526;-70
2022/06/28 09:29:58;;;;;;;1.45;0.57;;;30.10;48.70;;;;;;5035359;28;20281;-70
2022/06/28 09:32:29;;;;;;;1.63;0.77;;;30.10;48.00;;;;;;5035204;28;20185;-69
2022/06/28 09:35:01;;;;;;;1.45;0.88;;;30.20;48.90;;;;;;5035222;28;20182;-70
2022/06/28 09:37:53;;;;;;;1.08;0.60;;;30.30;47.60;;;;;;5035114;28;20198;-70
2022/06/28 09:40:20;;;;;;;0.82;0.68;;;30.10;45.90;;;;;;5035034;28;20178;-70
2022/06/28 09:43:14;;;;;;;1.35;0.60;;;29.90;47.00;;;;;;5035172;28;20634;-70
2022/06/28 09:45:42;;;;;;;1.50;0.80;;;30.10;49.00;;;;;;5034940;28;20174;-70
2022/06/28 09:48:09;;;;;;;1.13;0.90;;;30.40;46.10;;;;;;5035027;28;20194;-70
2022/06/28 09:50:36;;;;;;;2.13;0.90;;;30.50;46.80;;;;;;5034816;28;20179;-70
2022/06/28 09:53:04;;;;;;;3.05;0.52;;;30.70;45.10;;;;;;5034757;28;20217;-69
2022/06/28 09:55:32;;;;;;;4.00;0.80;;;30.70;45.60;;;;;;5034638;28;20174;-69
2022/06/28 09:57:59;;;;;;;1.27;0.75;;;31.00;46.60;;;;;;5034661;28;20265;-70
2022/06/28 10:00:25;;;;;;;1.35;0.90;;;30.80;44.80;;;;;;5034507;28;20182;-70
2022/06/28 10:02:54;;;;;;;1.83;0.60;;;30.60;46.30;;;;;;5034654;28;20178;-70
2022/06/28 10:05:20;;;;;;;1.33;0.73;;;30.80;47.40;;;;;;5034527;28;20178;-70
2022/06/28 10:07:46;;;;;;;1.30;0.70;;;31.10;46.50;;;;;;5034651;28;20257;-70
2022/06/28 10:10:12;;;;;;;1.92;0.90;;;31.30;45.50;;;;;;5034579;28;20658;-70
2022/06/28 10:15:31;;;;;;;1.73;0.73;;;31.40;44.20;;;;;;5034726;28;20205;-69
2022/06/28 10:18:01;;;;;;;1.23;0.85;;;31.30;42.30;;;;;;5034566;28;20174;-68
2022/06/28 10:20:33;;;;;;;0.73;0.73;;;31.10;43.70;;;;;;5034166;28;20188;-69
2022/06/28 10:23:28;;;;;;;2.70;1.00;;;30.70;43.50;;;;;;5034339;28;20182;-70
2022/06/28 10:26:20;;;;;;;1.95;0.90;;;30.40;44.50;;;;;;5034309;28;20265;-70
2022/06/28 10:29:02;;;;;;;2.15;1.00;;;30.40;45.80;;;;;;5034157;28;20185;-70
2022/06/28 10:31:29;;;;;;;1.25;0.75;;;30.60;46.20;;;;;;5034132;28;20200;-70
2022/06/28 10:33:57;;;;;;;0.57;0.57;;;30.80;45.90;;;;;;5033537;28;20178;-69
2022/06/28 10:36:25;;;;;;;1.40;0.80;;;31.00;46.20;;;;;;5033919;28;20174;-69
2022/06/28 10:39:08;;;;;;;2.20;0.88;;;31.30;45.10;;;;;;5033810;28;20226;-68
2022/06/28 10:41:42;;;;;;;0.93;0.90;;;31.30;44.10;;;;;;5033692;28;20286;-70
2022/06/28 10:44:08;;;;;;;0.73;0.60;;;31.30;44.70;;;;;;5033806;28;20656;-70
2022/06/28 10:46:34;;;;;;;2.53;1.13;;;31.60;45.20;;;;;;5033655;28;20288;-70
2022/06/28 10:49:03;;;;;;;1.15;0.63;;;31.60;43.70;;;;;;5033656;28;20248;-69
2022/06/28 10:51:28;;;;;;;1.02;0.73;;;31.70;43.90;;;;;;5033666;28;20174;-69
2022/06/28 10:54:08;;;;;;;1.23;0.63;;;31.70;43.10;;;;;;5033819;28;20240;-69
2022/06/28 10:56:39;;;;;;;0.60;0.60;;;31.80;43.70;;;;;;5033448;28;20185;-69
2022/06/28 10:59:08;;;;;;;1.75;0.60;;;31.70;44.20;;;;;;5033458;28;20637;-69
2022/06/28 11:01:39;;;;;;;1.08;0.73;;;31.90;43.40;;;;;;5033406;28;20205;-69
2022/06/28 11:04:10;;;;;;;1.00;0.65;;;32.20;43.30;;;;;;5033480;28;20261;-69
2022/06/28 11:06:40;;;;;;;2.35;0.90;;;32.40;43.70;;;;;;5033347;28;21354;-69
2022/06/28 11:09:29;;;;;;;0.85;0.50;;;32.40;42.30;;;;;;5033403;28;20217;-69
2022/06/28 11:12:04;;;;;;;1.02;0.60;;;32.30;43.10;;;;;;5033353;28;20193;-69
2022/06/28 11:14:32;;;;;;;0.73;0.70;;;32.00;42.10;;;;;;5033232;28;20566;-68
2022/06/28 11:16:59;;;;;;;0.73;0.68;;;31.80;42.10;;;;;;5033322;28;20233;-69
2022/06/28 11:19:26;;;;;;;0.60;0.60;;;31.60;42.60;;;;;;5033141;28;20261;-68
2022/06/28 11:21:55;;;;;;;0.80;0.63;;;31.20;43.00;;;;;;5033145;28;20221;-69
2022/06/28 11:24:23;;;;;;;1.17;0.57;;;31.00;43.30;;;;;;5032922;28;20277;-69
2022/06/28 11:29:33;;;;;;;1.00;0.70;;;30.50;44.30;;;;;;5033166;28;20185;-68
2022/06/28 11:31:58;;;;;;;0.90;0.57;;;30.30;45.10;;;;;;5032934;28;20182;-68
2022/06/28 11:34:25;;;;;;;3.53;0.85;;;30.30;44.90;;;;;;5032907;28;20240;-68
2022/06/28 11:36:55;;;;;;;1.50;0.80;;;30.40;45.40;;;;;;5032929;28;20202;-69
2022/06/28 11:39:23;;;;;;;1.45;0.65;;;30.40;45.20;;;;;;5032514;28;20309;-68
2022/06/28 11:41:51;;;;;;;0.70;0.70;;;30.50;44.80;;;;;;5032722;28;20225;-68
2022/06/28 11:44:18;;;;;;;1.33;0.60;;;30.50;44.50;;;;;;5031868;28;20198;-68
2022/06/28 11:46:45;;;;;;;4.10;0.45;;;30.50;44.60;;;;;;5032616;28;20174;-68
2022/06/28 11:49:11;;;;;;;3.90;0.80;;;30.30;43.30;;;;;;5032630;28;20170;-68
2022/06/28 11:51:40;;;;;;;1.42;0.68;;;30.40;45.60;;;;;;5032520;28;20186;-68
2022/06/28 11:54:06;;;;;;;0.50;0.50;;;30.60;44.60;;;;;;5032551;28;20170;-68
2022/06/28 11:56:43;;;;;;;2.75;0.70;;;30.60;44.60;;;;;;5032278;28;20552;-68
2022/06/28 11:59:09;;;;;;;0.93;0.80;;;30.70;45.40;;;;;;5032418;28;20197;-68
2022/06/28 12:01:38;;;;;;;1.30;0.82;;;31.00;45.40;;;;;;5032222;28;20206;-67
2022/06/28 12:04:06;;;;;;;0.57;0.55;;;30.90;43.10;;;;;;5032439;28;20174;-68
2022/06/28 12:06:33;;;;;;;0.75;0.43;;;30.60;43.30;;;;;;5032325;28;20182;-68
2022/06/28 12:09:01;;;;;;;4.00;0.77;;;30.50;44.50;;;;;;5032300;28;20743;-68
2022/06/28 12:11:32;;;;;;;0.52;0.52;;;30.40;44.90;;;;;;5032165;28;20193;-68
2022/06/28 12:13:58;;;;;;;0.63;0.63;;;30.20;43.90;;;;;;5032247;28;20690;-68
2022/06/28 12:16:28;;;;;;;2.05;0.60;;;30.10;44.60;;;;;;5032121;28;20174;-68
2022/06/28 12:18:54;;;;;;;1.27;0.70;;;30.00;45.60;;;;;;5032289;28;20178;-68
2022/06/28 12:21:21;;;;;;;1.17;0.50;;;30.20;45.90;;;;;;5031947;28;20581;-68
2022/06/28 12:23:48;;;;;;;0.93;0.63;;;30.20;44.40;;;;;;5032131;28;20694;-68
2022/06/28 12:26:14;;;;;;;1.38;0.40;;;30.10;44.40;;;;;;5032128;28;20248;-68
2022/06/28 12:28:39;;;;;;;1.45;0.70;;;29.90;45.00;;;;;;5031861;28;20170;-68
2022/06/28 12:31:05;;;;;;;0.40;0.40;;;29.90;44.20;;;;;;5032134;28;20234;-68
2022/06/28 12:33:30;;;;;;;0.30;0.30;;;29.80;45.30;;;;;;5031990;28;20232;-68
2022/06/28 12:35:56;;;;;;;1.05;0.60;;;29.70;46.40;;;;;;5032053;28;20178;-68
2022/06/28 12:38:21;;;;;;;0.80;0.47;;;29.60;46.00;;;;;;5031795;28;20259;-67
2022/06/28 12:40:47;;;;;;;0.95;0.65;;;29.70;45.80;;;;;;5014297;28;20205;-68
2022/06/28 12:43:12;;;;;;;0.63;0.40;;;29.60;45.80;;;;;;5031976;28;20178;-68
2022/06/28 12:45:38;;;;;;;2.17;0.70;;;29.40;46.00;;;;;;5014144;28;20547;-68
2022/06/28 12:48:04;;;;;;;0.93;0.50;;;29.10;45.80;;;;;;5031809;28;20182;-68
2022/06/28 12:50:29;;;;;;;1.38;0.60;;;29.10;46.60;;;;;;5031848;28;20180;-68
2022/06/28 12:52:55;;;;;;;1.33;0.50;;;29.10;47.40;;;;;;5014167;28;20174;-68
2022/06/28 12:55:20;;;;;;;0.70;0.70;;;29.30;47.30;;;;;;5031716;28;20174;-68
2022/06/28 12:57:46;;;;;;;1.10;0.50;;;29.20;46.90;;;;;;5035736;28;20637;-68
2022/06/28 13:00:13;;;;;;;1.17;0.65;;;29.10;46.60;;;;;;5035836;28;20170;-68
2022/06/28 13:02:39;;;;;;;0.80;0.80;;;29.00;47.00;;;;;;5035547;28;20216;-68
2022/06/28 13:05:05;;;;;;;0.70;0.70;;;28.90;47.00;;;;;;5035733;28;20178;-68